createdAt,value
2023-04-22T07:26:55.477Z,73.00
2023-04-22T07:29:23.162Z,72.00
2023-04-22T07:31:50.543Z,71.30
2023-04-22T07:34:18.433Z,68.90
2023-04-22T07:36:46.101Z,71.90
2023-04-22T07:39:13.445Z,68.50
2023-04-22T07:41:40.741Z,66.70
2023-04-22T07:44:08.152Z,65.10
2023-04-22T07:46:35.940Z,64.00
2023-04-22T07:49:03.237Z,63.50
2023-04-22T07:51:30.548Z,61.90
2023-04-22T07:53:58.115Z,63.00
2023-04-22T07:56:25.660Z,59.50
2023-04-22T07:58:52.927Z,58.60
2023-04-22T08:01:20.351Z,59.40
2023-04-22T08:03:48.012Z,57.70
2023-04-22T08:06:16.013Z,57.30
2023-04-22T08:08:43.462Z,56.60
2023-04-22T08:11:10.788Z,55.70
2023-04-22T08:13:38.047Z,56.30
2023-04-22T08:16:07.362Z,55.60
2023-04-22T08:18:35.654Z,54.80
2023-04-22T08:21:03.053Z,55.50
2023-04-22T08:23:30.489Z,53.60
2023-04-22T08:25:57.842Z,53.40
2023-04-22T08:28:25.761Z,51.10
2023-04-22T08:30:53.116Z,50.80
2023-04-22T08:33:20.510Z,49.00
2023-04-22T08:35:48.079Z,49.30
2023-04-22T08:38:15.676Z,49.60
2023-04-22T08:40:43.289Z,50.50
2023-04-22T08:43:12.252Z,50.20
2023-04-22T08:45:40.151Z,49.60
2023-04-22T08:48:09.302Z,46.60
2023-04-22T08:50:39.406Z,49.10
2023-04-22T08:53:06.860Z,46.60
2023-04-22T08:55:35.824Z,47.20
2023-04-22T08:58:05.785Z,47.00
2023-04-22T09:00:34.514Z,47.30
2023-04-22T09:03:03.272Z,46.90
2023-04-22T09:05:33.855Z,45.10
2023-04-22T09:08:02.175Z,46.20
2023-04-22T09:10:32.421Z,44.50
2023-04-22T09:13:03.233Z,42.90
2023-04-22T09:15:30.892Z,41.30
2023-04-22T09:17:58.613Z,41.90
2023-04-22T09:20:28.050Z,41.50
2023-04-22T09:22:57.674Z,42.10
2023-04-22T09:25:27.533Z,44.50
2023-04-22T09:27:57.035Z,45.60
2023-04-22T09:30:29.473Z,46.10
2023-04-22T09:32:58.986Z,45.80
2023-04-22T09:35:33.691Z,45.70
2023-04-22T09:38:03.323Z,44.80
2023-04-22T09:40:31.720Z,45.50
2023-04-22T09:43:01.635Z,44.80
2023-04-22T09:45:32.791Z,47.70
2023-04-22T09:48:13.867Z,47.90
2023-04-22T09:50:45.378Z,48.40
2023-04-22T09:53:16.031Z,47.80
2023-04-22T09:55:47.554Z,46.10
2023-04-22T09:58:20.579Z,48.20
2023-04-22T10:01:03.490Z,46.50
2023-04-22T10:03:31.027Z,47.90
2023-04-22T10:05:59.553Z,47.70
2023-04-22T10:08:27.052Z,47.80
2023-04-22T10:10:54.452Z,47.60
2023-04-22T10:15:52.780Z,46.50
2023-04-22T10:18:25.725Z,48.70
2023-04-22T10:20:54.047Z,47.30
2023-04-22T10:23:23.127Z,47.80
2023-04-22T10:25:55.350Z,48.00
2023-04-22T10:28:24.090Z,49.00
2023-04-22T10:30:51.798Z,48.20
2023-04-22T10:33:27.414Z,49.10
2023-04-22T10:36:08.293Z,48.20
2023-04-22T10:38:37.168Z,49.40
2023-04-22T10:41:05.263Z,48.40
2023-04-22T10:43:45.499Z,48.00
2023-04-22T10:46:40.283Z,49.10
2023-04-22T10:49:12.755Z,48.10
2023-04-22T10:51:44.953Z,48.50
2023-04-22T10:54:31.015Z,47.20
2023-04-22T10:57:15.406Z,48.30
2023-04-22T10:59:54.405Z,49.60
2023-04-22T11:02:23.745Z,48.90
2023-04-22T11:04:55.157Z,46.70
2023-04-22T11:07:26.713Z,47.70
2023-04-22T11:10:06.888Z,47.20
2023-04-22T11:12:39.914Z,47.60
2023-04-22T11:15:16.089Z,46.80
2023-04-22T11:17:44.998Z,46.90
2023-04-22T11:20:14.102Z,46.10
2023-04-22T11:22:43.666Z,45.60
2023-04-22T11:25:11.311Z,47.70
2023-04-22T11:27:39.831Z,47.70
2023-04-22T11:30:14.990Z,49.90
2023-04-22T11:32:44.842Z,47.50
2023-04-22T11:35:15.373Z,47.20
2023-04-22T11:37:43.482Z,45.50
2023-04-22T11:40:30.134Z,45.80
2023-04-22T11:43:01.402Z,44.90
2023-04-22T11:45:30.600Z,43.60
2023-04-22T11:47:58.705Z,46.00
2023-04-22T11:50:28.218Z,45.70
2023-04-22T11:53:02.445Z,44.20
2023-04-22T11:55:32.756Z,45.30
2023-04-22T11:58:08.642Z,46.90
2023-04-22T12:00:37.256Z,47.40
2023-04-22T12:03:26.827Z,47.50
2023-04-22T12:06:03.874Z,43.10
2023-04-22T12:08:33.468Z,43.00
2023-04-22T12:11:03.778Z,42.50
2023-04-22T12:13:38.595Z,45.10
2023-04-22T12:16:14.132Z,44.30
2023-04-22T12:18:49.755Z,45.70
2023-04-22T12:21:21.182Z,46.40
2023-04-22T12:23:52.764Z,45.10
2023-04-22T12:26:26.517Z,43.90
2023-04-22T12:28:55.748Z,44.30
2023-04-22T12:31:23.328Z,45.10
2023-04-22T12:33:50.999Z,44.20
2023-04-22T12:36:20.863Z,46.00
2023-04-22T12:38:49.839Z,43.10
2023-04-22T12:41:17.254Z,45.70
2023-04-22T12:43:44.672Z,45.90
2023-04-22T12:46:12.374Z,45.80
2023-04-22T12:48:39.972Z,45.10
2023-04-22T12:51:07.520Z,46.00
2023-04-22T12:53:34.981Z,45.50
2023-04-22T12:56:02.314Z,47.10
2023-04-22T12:58:30.456Z,45.90
2023-04-22T13:00:57.798Z,46.70
2023-04-22T13:03:25.376Z,46.10
2023-04-22T13:05:53.126Z,43.80
2023-04-22T13:08:20.455Z,44.10
2023-04-22T13:10:48.409Z,44.20
2023-04-22T13:13:18.917Z,45.00
2023-04-22T13:15:52.910Z,44.30
2023-04-22T13:18:21.259Z,44.10
2023-04-22T13:20:48.574Z,45.30
2023-04-22T13:23:17.034Z,45.10
2023-04-22T13:25:44.603Z,45.80
2023-04-22T13:28:11.930Z,46.50
2023-04-22T13:30:39.796Z,46.10
2023-04-22T13:33:07.330Z,46.10
2023-04-22T13:35:35.593Z,45.30
2023-04-22T13:38:03.274Z,46.10
2023-04-22T13:40:30.699Z,44.70
2023-04-22T13:42:58.434Z,45.90
2023-04-22T13:45:26.529Z,45.40
2023-04-22T13:47:54.640Z,46.30
2023-04-22T13:50:23.546Z,46.00
2023-04-22T13:52:51.447Z,46.70
2023-04-22T13:55:18.895Z,46.70
2023-04-22T13:57:46.646Z,46.10
2023-04-22T14:00:14.367Z,46.60
2023-04-22T14:02:41.876Z,46.40
2023-04-22T14:05:10.593Z,46.90
2023-04-22T14:07:37.928Z,46.60
2023-04-22T14:10:08.626Z,47.00
2023-04-22T14:12:36.931Z,47.60
2023-04-22T14:15:06.316Z,47.80
2023-04-22T14:17:33.982Z,47.90
2023-04-22T14:20:01.790Z,48.60
2023-04-22T14:22:29.192Z,47.10
2023-04-22T14:24:56.613Z,46.80
2023-04-22T14:27:29.288Z,46.10
2023-04-22T14:29:56.985Z,45.70
2023-04-22T14:32:25.846Z,45.30
2023-04-22T14:34:53.423Z,45.70
2023-04-22T14:37:23.949Z,47.20
2023-04-22T14:39:51.534Z,46.90
2023-04-22T14:42:19.543Z,47.20
2023-04-22T14:44:47.408Z,47.50
2023-04-22T14:47:15.052Z,46.70
2023-04-22T14:49:42.348Z,48.00
2023-04-22T14:52:09.651Z,48.30
2023-04-22T14:54:36.981Z,48.20
2023-04-22T14:57:04.805Z,48.80
2023-04-22T14:59:32.129Z,48.90
2023-04-22T15:01:59.956Z,48.60
2023-04-22T15:04:27.496Z,48.50
2023-04-22T15:06:57.426Z,49.00
2023-04-22T15:09:24.959Z,49.70
2023-04-22T15:11:54.048Z,48.60
2023-04-22T15:14:21.866Z,49.50
2023-04-22T15:16:49.647Z,49.50
2023-04-22T15:19:16.971Z,49.00
2023-04-22T15:21:44.550Z,49.90
2023-04-22T15:24:11.975Z,50.40
2023-04-22T15:26:40.759Z,50.80
2023-04-22T15:29:08.401Z,50.10
2023-04-22T15:31:35.916Z,51.20
2023-04-22T15:34:03.775Z,50.30
2023-04-22T15:36:31.470Z,51.20
2023-04-22T15:38:59.523Z,52.30
2023-04-22T15:41:27.119Z,51.90
2023-04-22T15:43:54.674Z,51.50
2023-04-22T15:46:22.644Z,52.30
2023-04-22T15:48:49.999Z,51.50
2023-04-22T15:51:21.101Z,51.60
2023-04-22T15:53:48.711Z,50.90
2023-04-22T15:56:16.323Z,50.90
2023-04-22T15:58:44.249Z,51.00
2023-04-22T16:03:45.220Z,51.60
2023-04-22T16:06:12.822Z,51.30
2023-04-22T16:08:40.304Z,52.40
2023-04-22T16:11:07.713Z,51.50
2023-04-22T16:13:35.697Z,51.90
2023-04-22T16:16:04.202Z,52.50
2023-04-22T16:18:32.037Z,52.50
2023-04-22T16:21:05.281Z,52.50
2023-04-22T16:23:33.583Z,53.20
2023-04-22T16:26:02.697Z,52.30
2023-04-22T16:28:30.560Z,52.80
2023-04-22T16:30:57.946Z,52.30
2023-04-22T16:33:25.791Z,52.90
2023-04-22T16:35:53.476Z,52.30
2023-04-22T16:38:20.923Z,52.20
2023-04-22T16:40:48.510Z,51.70
2023-04-22T16:43:15.771Z,53.00
2023-04-22T16:45:43.333Z,52.50
2023-04-22T16:48:10.674Z,51.80
2023-04-22T16:50:41.237Z,52.90
2023-04-22T16:53:09.874Z,54.00
2023-04-22T16:55:37.233Z,54.40
2023-04-22T16:58:04.937Z,53.80
2023-04-22T17:00:32.393Z,53.90
2023-04-22T17:03:00.816Z,53.50
2023-04-22T17:05:28.464Z,53.90
2023-04-22T17:07:55.845Z,54.20
2023-04-22T17:10:23.644Z,54.70
2023-04-22T17:12:52.906Z,53.90
2023-04-22T17:15:20.596Z,53.90
2023-04-22T17:17:48.353Z,54.10
2023-04-22T17:20:15.781Z,54.00
2023-04-22T17:22:43.174Z,54.10
2023-04-22T17:25:10.847Z,54.70
2023-04-22T17:27:38.171Z,54.40
2023-04-22T17:30:06.135Z,54.40
2023-04-22T17:32:33.447Z,53.90
2023-04-22T17:35:00.853Z,53.80
2023-04-22T17:37:28.369Z,54.20
2023-04-22T17:39:56.272Z,54.60
2023-04-22T17:42:27.199Z,55.50
2023-04-22T17:45:00.057Z,55.20
2023-04-22T17:47:27.477Z,54.50
2023-04-22T17:49:55.577Z,55.40
2023-04-22T17:52:23.693Z,56.20
2023-04-22T17:54:52.036Z,56.70
2023-04-22T17:57:19.481Z,56.70
2023-04-22T17:59:46.776Z,57.10
2023-04-22T18:02:14.384Z,56.60
2023-04-22T18:04:41.842Z,56.30
2023-04-22T18:07:09.141Z,57.10
2023-04-22T18:09:36.462Z,56.70
2023-04-22T18:12:04.062Z,57.20
2023-04-22T18:14:31.766Z,56.40
2023-04-22T18:17:00.597Z,57.50
2023-04-22T18:19:28.139Z,57.90
2023-04-22T18:22:00.006Z,56.70
2023-04-22T18:24:28.312Z,56.70
2023-04-22T18:26:56.352Z,57.50
2023-04-22T18:29:23.623Z,57.80
2023-04-22T18:31:51.307Z,57.50
2023-04-22T18:34:18.609Z,58.10
2023-04-22T18:36:46.493Z,58.50
2023-04-22T18:39:13.814Z,59.10
2023-04-22T18:41:43.107Z,59.20
2023-04-22T18:44:10.420Z,59.00
2023-04-22T18:46:37.892Z,59.20
2023-04-22T18:49:05.762Z,59.20
2023-04-22T18:51:33.288Z,59.60
2023-04-22T18:54:00.942Z,59.70
2023-04-22T18:56:30.220Z,59.70
2023-04-22T18:58:57.594Z,60.70
2023-04-22T19:01:25.099Z,61.00
2023-04-22T19:03:53.204Z,62.00
2023-04-22T19:06:20.685Z,62.80
2023-04-22T19:08:48.829Z,63.60
2023-04-22T19:11:17.295Z,63.50
2023-04-22T19:13:44.868Z,63.90
2023-04-22T19:16:12.546Z,63.80
2023-04-22T19:18:40.586Z,65.10
2023-04-22T19:21:08.045Z,66.10
2023-04-22T19:23:37.413Z,65.70
2023-04-22T19:26:04.782Z,66.10
2023-04-22T19:28:32.296Z,67.00
2023-04-22T19:31:01.263Z,67.10
2023-04-22T19:33:29.318Z,67.10
2023-04-22T19:35:56.823Z,67.50
2023-04-22T19:38:49.303Z,69.20
2023-04-22T19:41:17.299Z,66.90
2023-04-22T19:43:46.276Z,68.40
2023-04-22T19:46:14.375Z,68.70
2023-04-22T19:48:45.017Z,68.80
2023-04-22T19:51:12.868Z,68.90
2023-04-22T19:53:46.921Z,69.40
2023-04-22T19:56:14.982Z,69.30
2023-04-22T19:58:44.293Z,69.70
2023-04-22T20:01:12.475Z,71.70
2023-04-22T20:03:40.639Z,70.00
2023-04-22T20:06:10.235Z,70.50
2023-04-22T20:08:45.962Z,71.60
2023-04-22T20:11:13.525Z,72.60
2023-04-22T20:16:35.338Z,72.90
2023-04-22T20:19:03.486Z,72.90
2023-04-22T20:21:34.424Z,73.10
2023-04-22T20:24:04.627Z,73.30
2023-04-22T20:26:41.680Z,73.50
2023-04-22T20:29:13.026Z,73.00
2023-04-22T20:31:41.835Z,73.70
2023-04-22T20:34:09.833Z,73.80
2023-04-22T20:36:39.710Z,73.80
2023-04-22T20:55:00.936Z,76.20
2023-04-22T20:57:29.925Z,76.00
2023-04-22T21:00:11.900Z,77.60
2023-04-22T21:02:54.392Z,77.20
2023-04-22T21:05:29.049Z,78.00
2023-04-22T21:08:01.125Z,78.10
2023-04-22T21:10:28.938Z,78.20
